Time;durP1;ratioP1;P1;durP2;ratioP2;P2;SDS_P1;SDS_P2;PMS_P1;PMS_P2;Temp;Humidity;BMP_temperature;BMP_pressure;BME280_temperature;BME280_humidity;BME280_pressure;Samples;Min_cycle;Max_cycle;Signal;HPM_P1;HPM_P2
2023/08/30 00:02:27;;;;;;;54.83;52.53;;;;;;;;;;5071935;28;20462;-44
2023/08/30 00:04:59;;;;;;;53.50;51.30;;;;;;;;;;5048806;28;20455;-43
2023/08/30 00:07:26;;;;;;;56.00;53.80;;;;;;;;;;5042590;28;20440;-41
2023/08/30 00:09:54;;;;;;;56.27;53.97;;;;;;;;;;5065662;28;20439;-40
2023/08/30 00:12:21;;;;;;;56.10;53.73;;;;;;;;;;5040535;28;20471;-40
2023/08/30 00:14:50;;;;;;;57.67;55.27;;;;;;;;;;5040937;28;20546;-40
2023/08/30 00:17:19;;;;;;;56.67;54.03;;;;;;;;;;5048364;28;20459;-42
2023/08/30 00:19:48;;;;;;;59.30;56.80;;;;;;;;;;5029661;28;20444;-44
2023/08/30 00:22:15;;;;;;;55.80;53.60;;;;;;;;;;5031108;28;20436;-40
2023/08/30 00:24:43;;;;;;;56.80;54.40;;;;;;;;;;5031073;28;20526;-43
2023/08/30 00:27:10;;;;;;;54.90;52.60;;;;;;;;;;5030920;28;20443;-41
2023/08/30 00:29:38;;;;;;;55.80;53.73;;;;;;;;;;5042480;28;20482;-41
2023/08/30 00:32:07;;;;;;;63.33;60.43;;;;;;;;;;5035461;28;20510;-42
2023/08/30 00:34:35;;;;;;;62.90;60.30;;;;;;;;;;5030533;28;20630;-42
2023/08/30 00:37:02;;;;;;;67.70;64.27;;;;;;;;;;5029575;28;20789;-41
2023/08/30 00:39:30;;;;;;;64.60;62.00;;;;;;;;;;5039410;28;20820;-42
2023/08/30 00:41:57;;;;;;;65.90;62.17;;;;;;;;;;5030927;28;20436;-43
2023/08/30 00:44:25;;;;;;;66.73;63.53;;;;;;;;;;5039870;28;20559;-40
2023/08/30 00:46:52;;;;;;;68.53;65.73;;;;;;;;;;5036857;28;20448;-43
2023/08/30 00:49:21;;;;;;;66.73;64.13;;;;;;;;;;5047183;28;20463;-42
2023/08/30 00:51:48;;;;;;;69.17;66.07;;;;;;;;;;5049966;28;20431;-41
2023/08/30 00:54:16;;;;;;;73.03;69.83;;;;;;;;;;5049842;28;20538;-41
2023/08/30 00:56:44;;;;;;;69.70;66.80;;;;;;;;;;5049189;28;20461;-40
2023/08/30 00:59:11;;;;;;;70.37;67.37;;;;;;;;;;5050571;28;20435;-45
2023/08/30 01:01:39;;;;;;;67.40;64.60;;;;;;;;;;5049728;28;20514;-40
2023/08/30 01:04:07;;;;;;;68.97;65.87;;;;;;;;;;5050074;28;20866;-40
2023/08/30 01:06:36;;;;;;;71.57;68.47;;;;;;;;;;5050379;28;20455;-47
2023/08/30 01:09:04;;;;;;;73.43;70.20;;;;;;;;;;5049670;28;20435;-42
2023/08/30 01:11:34;;;;;;;73.03;69.63;;;;;;;;;;5050034;28;20442;-41
2023/08/30 01:14:03;;;;;;;69.67;66.57;;;;;;;;;;5050025;28;20462;-43
2023/08/30 01:16:31;;;;;;;71.83;68.80;;;;;;;;;;5048441;28;20459;-40
2023/08/30 01:19:00;;;;;;;72.77;69.67;;;;;;;;;;5050343;28;20526;-42
2023/08/30 01:21:30;;;;;;;83.20;79.70;;;;;;;;;;5048678;28;20431;-40
2023/08/30 01:24:01;;;;;;;79.73;76.53;;;;;;;;;;5050140;28;20570;-40
2023/08/30 01:26:34;;;;;;;80.23;76.63;;;;;;;;;;5049771;28;20558;-40
2023/08/30 01:29:04;;;;;;;84.50;80.90;;;;;;;;;;5049101;28;20439;-41
2023/08/30 01:31:33;;;;;;;85.90;81.70;;;;;;;;;;5052457;28;20437;-40
2023/08/30 01:34:02;;;;;;;81.80;78.10;;;;;;;;;;5054290;28;20530;-43
2023/08/30 01:36:30;;;;;;;82.63;78.83;;;;;;;;;;5053785;28;20585;-40
2023/08/30 01:38:59;;;;;;;81.50;77.50;;;;;;;;;;5053686;28;20833;-40
2023/08/30 01:41:26;;;;;;;85.50;81.50;;;;;;;;;;5054098;28;20463;-40
2023/08/30 01:43:54;;;;;;;94.30;90.10;;;;;;;;;;5052693;28;20545;-40
2023/08/30 01:46:23;;;;;;;87.20;83.30;;;;;;;;;;5052832;28;20455;-41
2023/08/30 01:48:51;;;;;;;85.40;81.87;;;;;;;;;;5053308;28;20437;-40
2023/08/30 01:51:19;;;;;;;85.10;81.43;;;;;;;;;;5053370;28;21017;-42
2023/08/30 01:53:47;;;;;;;84.43;80.80;;;;;;;;;;5053632;28;20542;-42
2023/08/30 01:56:14;;;;;;;88.70;84.73;;;;;;;;;;5052769;28;20509;-40
2023/08/30 01:58:42;;;;;;;88.90;84.93;;;;;;;;;;5052947;28;20439;-44
2023/08/30 02:01:09;;;;;;;85.53;81.73;;;;;;;;;;5053328;28;20766;-41
2023/08/30 02:03:38;;;;;;;88.37;84.43;;;;;;;;;;5053026;28;20459;-40
2023/08/30 02:06:09;;;;;;;84.37;80.73;;;;;;;;;;5053316;28;20465;-40
2023/08/30 02:08:38;;;;;;;87.27;83.67;;;;;;;;;;5053522;28;20501;-41
2023/08/30 02:11:08;;;;;;;89.53;85.87;;;;;;;;;;5052685;28;20439;-40
2023/08/30 02:13:36;;;;;;;86.03;82.33;;;;;;;;;;5052447;28;20497;-43
2023/08/30 02:16:04;;;;;;;87.13;83.00;;;;;;;;;;5052550;28;20467;-41
2023/08/30 02:18:32;;;;;;;87.10;83.50;;;;;;;;;;5053433;28;20431;-41
2023/08/30 02:21:03;;;;;;;89.80;85.67;;;;;;;;;;5053356;28;20534;-46
2023/08/30 02:23:30;;;;;;;89.83;86.13;;;;;;;;;;5052864;28;20545;-40
2023/08/30 02:25:57;;;;;;;86.87;82.97;;;;;;;;;;5051011;28;21156;-44
2023/08/30 02:28:25;;;;;;;92.13;88.03;;;;;;;;;;5053140;28;21195;-40
2023/08/30 02:30:54;;;;;;;91.43;87.13;;;;;;;;;;5052024;28;20427;-41
2023/08/30 02:33:21;;;;;;;96.43;92.13;;;;;;;;;;5053197;28;20467;-42
2023/08/30 02:35:49;;;;;;;87.63;83.90;;;;;;;;;;5042901;28;20475;-44
2023/08/30 02:38:18;;;;;;;89.80;85.90;;;;;;;;;;5052617;28;21144;-40
2023/08/30 02:40:45;;;;;;;92.40;88.33;;;;;;;;;;5053191;28;20907;-40
2023/08/30 02:43:13;;;;;;;91.73;87.57;;;;;;;;;;5051472;28;20451;-40
2023/08/30 02:45:40;;;;;;;92.97;89.00;;;;;;;;;;5050907;28;20509;-40
2023/08/30 02:48:08;;;;;;;95.03;90.90;;;;;;;;;;5052866;28;20581;-41
2023/08/30 02:50:36;;;;;;;91.70;88.00;;;;;;;;;;5051858;28;20435;-41
2023/08/30 02:53:03;;;;;;;92.77;88.67;;;;;;;;;;5052913;28;20456;-43
2023/08/30 02:55:32;;;;;;;93.13;89.23;;;;;;;;;;5051299;28;20463;-46
2023/08/30 02:58:00;;;;;;;95.03;90.63;;;;;;;;;;5053094;28;20481;-41
2023/08/30 03:00:27;;;;;;;97.10;92.60;;;;;;;;;;5051838;28;20475;-41
2023/08/30 03:02:55;;;;;;;99.97;95.20;;;;;;;;;;5052615;28;20486;-40
2023/08/30 03:05:22;;;;;;;100.87;96.47;;;;;;;;;;5051614;28;20471;-40
2023/08/30 03:07:51;;;;;;;97.40;93.20;;;;;;;;;;5051869;28;20992;-41
2023/08/30 03:10:18;;;;;;;101.03;96.37;;;;;;;;;;5052913;28;20470;-40
2023/08/30 03:12:47;;;;;;;98.77;94.23;;;;;;;;;;5049254;28;20467;-42
2023/08/30 03:15:14;;;;;;;98.63;94.43;;;;;;;;;;5051126;28;20455;-43
2023/08/30 03:17:42;;;;;;;99.80;95.10;;;;;;;;;;5051942;28;20446;-44
2023/08/30 03:20:10;;;;;;;99.03;94.67;;;;;;;;;;5051808;28;21255;-40
2023/08/30 03:22:37;;;;;;;101.27;96.77;;;;;;;;;;5052338;28;20934;-40
2023/08/30 03:25:05;;;;;;;100.70;96.37;;;;;;;;;;5051047;28;20562;-41
2023/08/30 03:27:33;;;;;;;101.73;96.93;;;;;;;;;;5051134;28;20466;-42
2023/08/30 03:30:02;;;;;;;100.13;95.50;;;;;;;;;;5051669;28;20493;-40
2023/08/30 03:32:32;;;;;;;96.33;91.93;;;;;;;;;;5051754;28;20435;-40
2023/08/30 03:34:59;;;;;;;102.83;98.03;;;;;;;;;;5056332;28;20491;-40
2023/08/30 03:37:27;;;;;;;97.67;93.53;;;;;;;;;;5059608;28;20497;-44
2023/08/30 03:39:54;;;;;;;102.97;98.33;;;;;;;;;;5050781;28;20464;-44
2023/08/30 03:42:22;;;;;;;101.73;96.97;;;;;;;;;;5058802;28;20451;-41
2023/08/30 03:44:49;;;;;;;100.40;95.53;;;;;;;;;;5057003;28;20451;-42
2023/08/30 03:47:18;;;;;;;99.40;94.50;;;;;;;;;;5057663;28;20431;-41
2023/08/30 03:49:45;;;;;;;95.67;91.00;;;;;;;;;;5057863;28;20505;-42
2023/08/30 03:52:13;;;;;;;100.20;95.30;;;;;;;;;;5058053;28;20427;-43
2023/08/30 03:54:41;;;;;;;102.43;97.53;;;;;;;;;;5056406;28;20463;-42
2023/08/30 03:57:08;;;;;;;95.60;91.40;;;;;;;;;;5058692;28;20534;-44
2023/08/30 03:59:36;;;;;;;101.20;96.90;;;;;;;;;;5057827;28;20493;-43
2023/08/30 04:02:04;;;;;;;94.60;90.23;;;;;;;;;;5057935;28;20431;-41
2023/08/30 04:04:32;;;;;;;97.80;93.20;;;;;;;;;;5056155;28;20459;-42
2023/08/30 04:07:00;;;;;;;106.33;101.53;;;;;;;;;;5059240;28;20570;-41
2023/08/30 04:09:27;;;;;;;99.90;95.40;;;;;;;;;;5058682;28;21004;-44
2023/08/30 04:11:55;;;;;;;104.33;99.83;;;;;;;;;;5048752;28;20446;-40
2023/08/30 04:14:22;;;;;;;105.10;100.50;;;;;;;;;;5059383;28;20517;-42
2023/08/30 04:16:52;;;;;;;107.60;102.90;;;;;;;;;;5036328;28;20464;-41
2023/08/30 04:19:19;;;;;;;104.40;99.67;;;;;;;;;;5037790;28;20440;-41
2023/08/30 04:21:48;;;;;;;106.00;101.30;;;;;;;;;;5037237;28;20444;-41
2023/08/30 04:24:16;;;;;;;106.70;102.10;;;;;;;;;;5037103;28;20516;-43
2023/08/30 04:26:43;;;;;;;113.20;107.80;;;;;;;;;;5037711;28;20499;-40
2023/08/30 04:29:11;;;;;;;100.57;95.87;;;;;;;;;;5044407;28;20560;-41
2023/08/30 04:31:38;;;;;;;102.47;97.10;;;;;;;;;;5056801;28;20978;-43
2023/08/30 04:34:06;;;;;;;104.03;98.77;;;;;;;;;;5044769;28;20456;-43
2023/08/30 04:36:33;;;;;;;104.03;99.07;;;;;;;;;;5038397;28;20452;-41
2023/08/30 04:39:02;;;;;;;104.07;98.87;;;;;;;;;;5036435;28;20468;-43
2023/08/30 04:41:30;;;;;;;105.47;100.63;;;;;;;;;;5037076;28;20428;-40
2023/08/30 04:43:57;;;;;;;102.03;97.03;;;;;;;;;;5036706;28;20491;-41
2023/08/30 04:46:25;;;;;;;94.97;90.37;;;;;;;;;;5052572;28;20467;-41
2023/08/30 04:48:52;;;;;;;105.30;100.00;;;;;;;;;;5057848;28;20920;-41
2023/08/30 04:51:20;;;;;;;99.90;94.90;;;;;;;;;;5058242;28;20879;-40
2023/08/30 04:53:47;;;;;;;96.20;91.40;;;;;;;;;;5058948;28;20461;-41
2023/08/30 04:56:18;;;;;;;97.87;93.17;;;;;;;;;;5057161;28;20490;-41
2023/08/30 04:58:45;;;;;;;98.87;94.07;;;;;;;;;;5056543;28;20503;-41
2023/08/30 05:01:14;;;;;;;94.20;89.13;;;;;;;;;;5056047;28;20911;-40
2023/08/30 05:03:42;;;;;;;89.33;85.10;;;;;;;;;;5057704;28;20447;-40
2023/08/30 05:06:10;;;;;;;87.73;83.20;;;;;;;;;;5055060;28;20478;-41
2023/08/30 05:08:37;;;;;;;83.30;79.10;;;;;;;;;;5055303;28;20431;-45
2023/08/30 05:11:04;;;;;;;85.00;80.90;;;;;;;;;;5058017;28;20467;-40
2023/08/30 05:13:34;;;;;;;90.43;86.00;;;;;;;;;;5057391;28;20470;-42
2023/08/30 05:16:03;;;;;;;87.17;82.57;;;;;;;;;;5055433;28;20487;-40
2023/08/30 05:18:30;;;;;;;79.17;75.10;;;;;;;;;;5056932;28;20442;-41
2023/08/30 05:20:58;;;;;;;69.30;65.60;;;;;;;;;;5056969;28;20463;-40
2023/08/30 05:23:25;;;;;;;72.07;68.37;;;;;;;;;;5055084;28;21211;-41
2023/08/30 05:25:53;;;;;;;69.10;65.80;;;;;;;;;;5056039;28;20473;-40
2023/08/30 05:28:21;;;;;;;68.50;64.80;;;;;;;;;;5056059;28;20432;-43
2023/08/30 05:30:49;;;;;;;65.47;61.57;;;;;;;;;;5056594;28;20443;-43
2023/08/30 05:33:17;;;;;;;62.80;59.40;;;;;;;;;;5057188;28;20542;-40
2023/08/30 05:35:44;;;;;;;61.70;58.40;;;;;;;;;;5055289;28;20463;-40
2023/08/30 05:38:12;;;;;;;56.47;53.60;;;;;;;;;;5055344;28;20923;-41
2023/08/30 05:40:42;;;;;;;56.83;53.53;;;;;;;;;;5056398;28;20439;-40
2023/08/30 05:43:10;;;;;;;51.80;48.80;;;;;;;;;;5056531;28;20487;-40
2023/08/30 05:45:37;;;;;;;54.57;51.03;;;;;;;;;;5055590;28;20460;-41
2023/08/30 05:48:07;;;;;;;51.93;48.97;;;;;;;;;;5055634;28;20496;-40
2023/08/30 05:50:35;;;;;;;52.27;49.07;;;;;;;;;;5057421;28;20432;-41
2023/08/30 05:53:03;;;;;;;51.60;48.20;;;;;;;;;;5058112;28;20494;-42
2023/08/30 05:55:31;;;;;;;52.13;49.23;;;;;;;;;;5056360;28;20685;-40
2023/08/30 05:57:58;;;;;;;53.13;49.70;;;;;;;;;;5058241;28;20461;-44
2023/08/30 06:00:26;;;;;;;45.50;42.87;;;;;;;;;;5056649;28;20442;-40
2023/08/30 06:02:53;;;;;;;48.53;45.30;;;;;;;;;;5055167;28;20474;-40
2023/08/30 06:05:22;;;;;;;45.40;42.63;;;;;;;;;;5055100;28;20525;-40
2023/08/30 06:07:50;;;;;;;42.00;39.50;;;;;;;;;;5055442;28;20513;-40
2023/08/30 06:10:17;;;;;;;40.27;37.63;;;;;;;;;;5056734;28;20431;-43
2023/08/30 06:12:45;;;;;;;42.60;40.00;;;;;;;;;;5055196;28;21018;-41
2023/08/30 06:15:12;;;;;;;40.33;38.03;;;;;;;;;;5057860;28;20451;-46
2023/08/30 06:17:40;;;;;;;39.97;37.70;;;;;;;;;;5056966;28;20457;-40
2023/08/30 06:20:08;;;;;;;41.80;39.27;;;;;;;;;;5058510;28;20484;-41
2023/08/30 06:22:37;;;;;;;40.07;37.87;;;;;;;;;;5059134;28;20434;-40
2023/08/30 06:25:06;;;;;;;38.47;36.33;;;;;;;;;;5046657;28;20563;-41
2023/08/30 06:27:34;;;;;;;39.37;37.17;;;;;;;;;;5039067;28;20475;-40
2023/08/30 06:30:03;;;;;;;37.77;35.70;;;;;;;;;;5051097;28;20561;-42
2023/08/30 06:32:30;;;;;;;40.23;37.87;;;;;;;;;;5059100;28;20638;-45
2023/08/30 06:34:59;;;;;;;39.73;37.13;;;;;;;;;;5058320;28;20462;-42
2023/08/30 06:37:26;;;;;;;39.00;36.80;;;;;;;;;;5058985;28;20431;-43
2023/08/30 06:39:55;;;;;;;35.43;33.33;;;;;;;;;;5058748;28;20430;-44
2023/08/30 06:42:24;;;;;;;38.23;35.87;;;;;;;;;;5049951;28;20435;-40
2023/08/30 06:44:51;;;;;;;37.83;35.67;;;;;;;;;;5049444;28;20462;-41
2023/08/30 06:47:19;;;;;;;38.03;35.83;;;;;;;;;;5059674;28;20477;-40
2023/08/30 06:49:46;;;;;;;36.57;34.47;;;;;;;;;;5057132;28;20453;-41
2023/08/30 06:52:14;;;;;;;36.07;33.93;;;;;;;;;;5052363;28;20861;-43
2023/08/30 06:54:41;;;;;;;37.20;34.90;;;;;;;;;;5057840;28;20512;-41
2023/08/30 06:57:10;;;;;;;35.40;33.50;;;;;;;;;;5058478;28;20435;-42
2023/08/30 06:59:37;;;;;;;32.90;31.00;;;;;;;;;;5058625;28;20877;-42
2023/08/30 07:02:05;;;;;;;32.50;30.70;;;;;;;;;;5054203;28;20919;-43
2023/08/30 07:04:32;;;;;;;33.30;31.53;;;;;;;;;;5054721;28;20454;-41
2023/08/30 07:07:00;;;;;;;32.20;30.50;;;;;;;;;;5058261;28;20602;-44
2023/08/30 07:09:29;;;;;;;30.60;29.00;;;;;;;;;;5051054;28;20493;-41
2023/08/30 07:11:57;;;;;;;29.83;28.43;;;;;;;;;;5048646;28;20438;-41
2023/08/30 07:14:26;;;;;;;32.37;30.30;;;;;;;;;;5052971;28;20455;-41
2023/08/30 07:16:53;;;;;;;30.43;28.77;;;;;;;;;;5047811;28;20475;-41
2023/08/30 07:19:21;;;;;;;27.90;26.27;;;;;;;;;;5038640;28;20420;-42
2023/08/30 07:21:48;;;;;;;30.33;28.63;;;;;;;;;;5048192;28;21002;-41
2023/08/30 07:24:16;;;;;;;30.50;28.63;;;;;;;;;;5041685;28;20448;-42
2023/08/30 07:26:43;;;;;;;29.00;27.50;;;;;;;;;;5057102;28;20545;-42
2023/08/30 07:29:11;;;;;;;31.33;29.60;;;;;;;;;;5057747;28;20914;-42
2023/08/30 07:31:41;;;;;;;31.60;29.70;;;;;;;;;;5059146;28;20466;-41
2023/08/30 07:34:09;;;;;;;27.90;26.40;;;;;;;;;;5057744;28;20477;-41
2023/08/30 07:36:37;;;;;;;27.27;25.87;;;;;;;;;;5056090;28;20463;-42
2023/08/30 07:39:14;;;;;;;28.63;27.03;;;;;;;;;;5050963;28;20618;-43
2023/08/30 07:41:42;;;;;;;28.40;26.90;;;;;;;;;;5058057;28;20431;-41
2023/08/30 07:44:09;;;;;;;26.40;24.93;;;;;;;;;;5069543;28;20599;-41
2023/08/30 07:46:36;;;;;;;25.17;23.87;;;;;;;;;;5051285;28;20534;-41
2023/08/30 07:49:05;;;;;;;25.30;23.80;;;;;;;;;;5057952;28;20471;-41
2023/08/30 07:51:33;;;;;;;23.50;22.27;;;;;;;;;;5057099;28;20838;-42
2023/08/30 07:54:00;;;;;;;22.83;21.63;;;;;;;;;;5059125;28;20469;-40
2023/08/30 07:56:31;;;;;;;19.53;18.43;;;;;;;;;;5057804;28;20458;-40
2023/08/30 07:58:58;;;;;;;19.60;18.60;;;;;;;;;;5057732;28;20431;-44
2023/08/30 08:01:26;;;;;;;20.40;19.20;;;;;;;;;;5039717;28;20440;-40
2023/08/30 08:03:53;;;;;;;20.00;18.70;;;;;;;;;;5055335;28;20693;-41
2023/08/30 08:06:35;;;;;;;18.90;17.80;;;;;;;;;;5056327;28;20462;-40
2023/08/30 08:09:04;;;;;;;19.53;18.23;;;;;;;;;;5058436;28;20562;-40
2023/08/30 08:11:32;;;;;;;22.23;20.73;;;;;;;;;;5050042;28;20431;-41
2023/08/30 08:14:00;;;;;;;20.30;19.00;;;;;;;;;;5054371;28;20603;-43
2023/08/30 08:16:27;;;;;;;18.97;17.70;;;;;;;;;;5053687;28;20481;-43
2023/08/30 08:18:55;;;;;;;17.33;16.37;;;;;;;;;;5056513;28;20434;-40
2023/08/30 08:21:25;;;;;;;19.93;18.53;;;;;;;;;;5057087;28;20435;-41
2023/08/30 08:23:54;;;;;;;20.93;19.53;;;;;;;;;;5056561;28;20476;-41
2023/08/30 08:26:22;;;;;;;18.70;17.50;;;;;;;;;;5057042;28;20549;-41
2023/08/30 08:28:49;;;;;;;18.27;17.10;;;;;;;;;;5056685;28;20488;-41
2023/08/30 08:31:18;;;;;;;18.73;17.63;;;;;;;;;;5056501;28;20444;-40
2023/08/30 08:33:46;;;;;;;20.30;18.67;;;;;;;;;;5057859;28;20542;-41
2023/08/30 08:36:13;;;;;;;19.77;18.50;;;;;;;;;;5057314;28;20470;-44
2023/08/30 08:38:41;;;;;;;15.70;14.80;;;;;;;;;;5064519;28;20460;-40
2023/08/30 08:41:12;;;;;;;18.80;17.20;;;;;;;;;;5049720;28;20447;-42
2023/08/30 08:43:40;;;;;;;18.37;17.23;;;;;;;;;;5072984;28;20973;-43
2023/08/30 08:46:10;;;;;;;18.97;17.60;;;;;;;;;;5063403;28;20473;-43
2023/08/30 08:48:40;;;;;;;21.17;17.37;;;;;;;;;;5057664;28;20469;-41
2023/08/30 08:51:08;;;;;;;19.63;18.07;;;;;;;;;;5056769;28;20427;-43
2023/08/30 08:53:36;;;;;;;20.43;18.80;;;;;;;;;;5056566;28;20517;-41
2023/08/30 08:56:04;;;;;;;16.97;15.77;;;;;;;;;;5050766;28;20476;-41
2023/08/30 08:58:32;;;;;;;17.20;16.07;;;;;;;;;;5062929;28;20440;-41
2023/08/30 09:01:00;;;;;;;15.13;14.13;;;;;;;;;;5074401;28;20462;-42
2023/08/30 09:03:28;;;;;;;16.30;15.20;;;;;;;;;;5055772;28;20458;-42
2023/08/30 09:05:56;;;;;;;13.77;12.93;;;;;;;;;;5056286;28;20450;-41
2023/08/30 09:08:23;;;;;;;14.20;13.27;;;;;;;;;;5076659;28;20738;-43
2023/08/30 09:10:52;;;;;;;13.37;12.27;;;;;;;;;;5076261;28;20456;-40
2023/08/30 09:13:20;;;;;;;12.97;12.00;;;;;;;;;;5062724;28;20472;-41
2023/08/30 09:15:50;;;;;;;11.60;10.90;;;;;;;;;;5061200;28;20462;-41
2023/08/30 09:18:17;;;;;;;11.23;10.53;;;;;;;;;;5040058;28;20527;-42
2023/08/30 09:20:44;;;;;;;11.97;11.17;;;;;;;;;;5056330;28;20453;-41
2023/08/30 09:23:19;;;;;;;11.53;10.83;;;;;;;;;;5048533;28;20455;-42
2023/08/30 09:25:47;;;;;;;13.10;12.13;;;;;;;;;;5049703;28;20481;-40
2023/08/30 09:28:15;;;;;;;11.30;10.50;;;;;;;;;;5055552;28;20897;-41
2023/08/30 09:30:43;;;;;;;11.17;10.50;;;;;;;;;;5055821;28;20724;-43
2023/08/30 09:33:12;;;;;;;11.70;10.87;;;;;;;;;;5056282;28;20522;-41
2023/08/30 09:35:46;;;;;;;13.30;12.30;;;;;;;;;;5055953;28;20467;-46
2023/08/30 09:38:17;;;;;;;12.47;11.53;;;;;;;;;;5056350;28;20481;-41
2023/08/30 09:40:45;;;;;;;12.43;11.43;;;;;;;;;;5057435;28;21187;-41
2023/08/30 09:43:13;;;;;;;11.47;10.57;;;;;;;;;;5055099;28;20477;-41
2023/08/30 09:45:41;;;;;;;10.87;10.00;;;;;;;;;;5055384;28;20465;-43
2023/08/30 09:48:08;;;;;;;10.43;9.50;;;;;;;;;;5074044;28;20512;-45
2023/08/30 09:50:37;;;;;;;9.90;9.23;;;;;;;;;;5076765;28;20501;-44
2023/08/30 09:53:08;;;;;;;8.83;8.30;;;;;;;;;;5075915;28;20454;-43
2023/08/30 09:55:36;;;;;;;9.70;8.70;;;;;;;;;;5059662;28;20904;-42
2023/08/30 09:58:04;;;;;;;8.90;8.10;;;;;;;;;;5060679;28;20491;-44
2023/08/30 10:00:31;;;;;;;8.50;7.87;;;;;;;;;;5072977;28;20472;-42
2023/08/30 10:02:59;;;;;;;9.43;8.60;;;;;;;;;;5069505;28;20454;-41
2023/08/30 10:05:48;;;;;;;9.37;8.67;;;;;;;;;;5059135;28;20876;-41
2023/08/30 10:08:16;;;;;;;7.90;7.20;;;;;;;;;;5078995;28;20426;-42
2023/08/30 10:10:44;;;;;;;9.43;8.83;;;;;;;;;;5080644;28;20438;-41
2023/08/30 10:13:11;;;;;;;9.40;8.50;;;;;;;;;;5079977;28;20574;-40
2023/08/30 10:15:41;;;;;;;10.97;10.03;;;;;;;;;;5069108;28;20462;-46
2023/08/30 10:18:10;;;;;;;10.63;9.93;;;;;;;;;;5059701;28;20446;-42
2023/08/30 10:20:38;;;;;;;10.23;9.43;;;;;;;;;;5059167;28;21003;-41
2023/08/30 10:23:11;;;;;;;10.00;9.30;;;;;;;;;;5050900;28;20474;-42
2023/08/30 10:25:39;;;;;;;10.17;9.47;;;;;;;;;;5059498;28;20462;-42
2023/08/30 10:28:07;;;;;;;8.80;8.00;;;;;;;;;;5059657;28;20761;-44
2023/08/30 10:30:36;;;;;;;10.13;9.43;;;;;;;;;;5058790;28;20466;-44
2023/08/30 10:33:04;;;;;;;10.07;9.13;;;;;;;;;;5058098;28;20489;-42
2023/08/30 10:35:32;;;;;;;9.27;8.60;;;;;;;;;;5058577;28;20462;-41
2023/08/30 10:38:00;;;;;;;10.80;10.10;;;;;;;;;;5058657;28;20501;-42
2023/08/30 10:40:29;;;;;;;11.03;10.10;;;;;;;;;;5058610;28;20441;-43
2023/08/30 10:42:59;;;;;;;15.37;10.93;;;;;;;;;;5058026;28;20457;-44
2023/08/30 10:45:27;;;;;;;10.90;9.90;;;;;;;;;;5057998;28;20484;-41
2023/08/30 10:47:58;;;;;;;11.07;10.27;;;;;;;;;;5058190;28;20441;-41
2023/08/30 10:50:29;;;;;;;18.47;12.00;;;;;;;;;;5058603;28;20554;-41
2023/08/30 10:52:56;;;;;;;10.90;10.10;;;;;;;;;;5050116;28;20478;-42
2023/08/30 10:55:24;;;;;;;10.27;9.30;;;;;;;;;;5057511;28;21029;-41
2023/08/30 10:58:00;;;;;;;12.20;10.27;;;;;;;;;;5058452;28;20431;-44
2023/08/30 11:00:28;;;;;;;8.70;8.00;;;;;;;;;;5040321;28;20523;-43
2023/08/30 11:02:56;;;;;;;8.33;7.63;;;;;;;;;;5053816;28;20463;-40
2023/08/30 11:05:24;;;;;;;17.07;9.50;;;;;;;;;;5054149;28;20482;-41
2023/08/30 11:07:52;;;;;;;8.63;7.97;;;;;;;;;;5047656;28;20436;-41
2023/08/30 11:10:20;;;;;;;8.50;7.87;;;;;;;;;;5032935;28;20473;-42
2023/08/30 11:12:49;;;;;;;9.67;8.53;;;;;;;;;;5058249;28;20454;-41
2023/08/30 11:15:18;;;;;;;9.30;8.33;;;;;;;;;;5057307;28;20465;-46
2023/08/30 11:17:46;;;;;;;8.70;8.10;;;;;;;;;;5058501;28;20438;-44
2023/08/30 11:20:14;;;;;;;7.93;7.33;;;;;;;;;;5058609;28;20458;-42
2023/08/30 11:22:43;;;;;;;12.83;8.37;;;;;;;;;;5045288;28;20472;-42
2023/08/30 11:25:11;;;;;;;9.37;8.20;;;;;;;;;;5055912;28;20463;-41
2023/08/30 11:27:39;;;;;;;9.17;8.40;;;;;;;;;;5052337;28;20440;-43
2023/08/30 11:30:08;;;;;;;8.30;7.60;;;;;;;;;;5055190;28;20532;-44
2023/08/30 11:32:37;;;;;;;9.37;8.50;;;;;;;;;;5057234;28;20438;-41
2023/08/30 11:35:05;;;;;;;8.53;7.87;;;;;;;;;;5057323;28;21092;-42
2023/08/30 11:37:33;;;;;;;9.60;8.90;;;;;;;;;;5057411;28;20473;-45
2023/08/30 11:40:01;;;;;;;10.90;9.93;;;;;;;;;;5057348;28;20949;-41
2023/08/30 11:42:30;;;;;;;9.73;9.00;;;;;;;;;;5057767;28;20535;-42
2023/08/30 11:44:58;;;;;;;10.83;9.97;;;;;;;;;;5056526;28;20480;-41
2023/08/30 11:47:26;;;;;;;10.30;9.43;;;;;;;;;;5057158;28;20503;-45
2023/08/30 11:49:56;;;;;;;8.80;8.03;;;;;;;;;;5057862;28;20591;-41
2023/08/30 11:52:24;;;;;;;9.60;8.73;;;;;;;;;;5041067;28;20472;-41
2023/08/30 11:54:52;;;;;;;12.37;9.27;;;;;;;;;;5056689;28;21029;-48
2023/08/30 11:57:20;;;;;;;10.00;8.97;;;;;;;;;;5057548;28;20435;-45
2023/08/30 11:59:49;;;;;;;11.83;8.87;;;;;;;;;;5056853;28;20434;-41
2023/08/30 12:02:17;;;;;;;21.90;9.00;;;;;;;;;;5057488;28;20435;-43
2023/08/30 12:04:45;;;;;;;10.20;8.17;;;;;;;;;;5048800;28;20457;-42
2023/08/30 12:07:23;;;;;;;11.53;8.10;;;;;;;;;;5047953;28;20426;-41
2023/08/30 12:09:51;;;;;;;9.80;7.37;;;;;;;;;;5057640;28;20470;-41
2023/08/30 12:12:19;;;;;;;10.40;8.10;;;;;;;;;;5053719;28;20439;-41
2023/08/30 12:14:55;;;;;;;8.27;7.57;;;;;;;;;;5035509;28;20467;-44
2023/08/30 12:17:22;;;;;;;8.10;7.40;;;;;;;;;;5056591;28;20433;-46
2023/08/30 12:19:56;;;;;;;8.53;7.93;;;;;;;;;;5056520;28;21025;-41
2023/08/30 12:22:24;;;;;;;15.80;9.67;;;;;;;;;;5031328;28;20447;-42
2023/08/30 12:24:53;;;;;;;8.50;7.80;;;;;;;;;;5051157;28;20477;-41
2023/08/30 12:27:20;;;;;;;8.37;7.67;;;;;;;;;;5056849;28;20431;-41
2023/08/30 12:29:48;;;;;;;8.10;7.50;;;;;;;;;;5057070;28;20510;-41
2023/08/30 12:32:15;;;;;;;8.40;6.63;;;;;;;;;;5054544;28;20458;-43
2023/08/30 12:34:43;;;;;;;6.80;6.10;;;;;;;;;;5050641;28;20491;-41
2023/08/30 12:37:11;;;;;;;7.83;7.13;;;;;;;;;;5054586;28;20430;-42
2023/08/30 12:39:39;;;;;;;7.97;7.37;;;;;;;;;;5044764;28;20483;-42
2023/08/30 12:42:07;;;;;;;7.43;6.83;;;;;;;;;;5044792;28;20459;-41
2023/08/30 12:44:36;;;;;;;6.60;6.10;;;;;;;;;;5052447;28;20456;-44
2023/08/30 12:47:04;;;;;;;7.60;6.90;;;;;;;;;;5057188;28;20465;-46
2023/08/30 12:49:32;;;;;;;7.93;7.40;;;;;;;;;;5057117;28;21248;-43
2023/08/30 12:52:00;;;;;;;8.93;8.13;;;;;;;;;;5055712;28;20595;-41
2023/08/30 12:54:27;;;;;;;9.00;8.27;;;;;;;;;;5055637;28;20497;-41
2023/08/30 12:56:56;;;;;;;9.10;8.33;;;;;;;;;;5056808;28;20504;-41
2023/08/30 12:59:24;;;;;;;12.50;8.53;;;;;;;;;;5056117;28;20431;-40
2023/08/30 13:01:51;;;;;;;8.97;8.17;;;;;;;;;;5056452;28;20853;-44
2023/08/30 13:04:19;;;;;;;9.80;8.73;;;;;;;;;;5057072;28;20834;-41
2023/08/30 13:06:46;;;;;;;8.70;8.00;;;;;;;;;;5055572;28;20466;-44
2023/08/30 13:09:14;;;;;;;9.17;8.47;;;;;;;;;;5056351;28;20616;-41
2023/08/30 13:11:41;;;;;;;9.17;8.50;;;;;;;;;;5056852;28;20858;-42
2023/08/30 13:14:10;;;;;;;9.27;8.33;;;;;;;;;;5057212;28;20458;-41
2023/08/30 13:16:38;;;;;;;7.80;7.20;;;;;;;;;;5056913;28;20482;-42
2023/08/30 13:19:05;;;;;;;9.10;8.40;;;;;;;;;;5047093;28;20485;-42
2023/08/30 13:21:33;;;;;;;8.53;7.83;;;;;;;;;;5051774;28;20464;-47
2023/08/30 13:24:08;;;;;;;8.17;7.47;;;;;;;;;;5047921;28;20454;-42
2023/08/30 13:26:35;;;;;;;8.33;7.73;;;;;;;;;;5056175;28;20482;-41
2023/08/30 13:29:03;;;;;;;9.97;8.70;;;;;;;;;;5047090;28;20473;-44
2023/08/30 13:31:32;;;;;;;9.50;8.60;;;;;;;;;;5052122;28;20468;-44
2023/08/30 13:33:59;;;;;;;11.40;10.30;;;;;;;;;;5052126;28;20822;-42
2023/08/30 13:36:27;;;;;;;9.57;8.57;;;;;;;;;;5047755;28;20663;-47
2023/08/30 13:38:57;;;;;;;14.20;9.37;;;;;;;;;;5056135;28;20473;-44
2023/08/30 13:41:25;;;;;;;8.87;8.07;;;;;;;;;;5055616;28;20477;-43
2023/08/30 13:43:52;;;;;;;11.23;10.40;;;;;;;;;;5054668;28;21445;-44
2023/08/30 13:46:20;;;;;;;10.83;9.53;;;;;;;;;;5052560;28;20450;-43
2023/08/30 13:48:49;;;;;;;10.03;9.23;;;;;;;;;;5056011;28;20430;-42
2023/08/30 13:51:21;;;;;;;8.30;7.67;;;;;;;;;;5055495;28;21088;-44
2023/08/30 13:53:49;;;;;;;23.30;10.17;;;;;;;;;;5055530;28;20512;-42
2023/08/30 13:56:16;;;;;;;12.03;9.63;;;;;;;;;;5055482;28;20571;-45
2023/08/30 13:58:44;;;;;;;13.77;10.10;;;;;;;;;;5070079;28;20516;-45
2023/08/30 14:01:12;;;;;;;10.07;9.27;;;;;;;;;;5077698;28;20460;-44
2023/08/30 14:03:39;;;;;;;15.13;8.73;;;;;;;;;;5074560;28;20485;-43
2023/08/30 14:06:09;;;;;;;13.27;9.80;;;;;;;;;;5060868;28;20892;-41
2023/08/30 14:08:36;;;;;;;11.97;9.10;;;;;;;;;;5057178;28;20431;-49
2023/08/30 14:11:04;;;;;;;10.10;8.43;;;;;;;;;;5055664;28;20477;-45
2023/08/30 14:13:32;;;;;;;9.03;8.00;;;;;;;;;;5056275;28;20462;-41
2023/08/30 14:16:00;;;;;;;11.00;8.33;;;;;;;;;;5056116;28;20471;-44
2023/08/30 14:18:28;;;;;;;9.47;8.67;;;;;;;;;;5050272;28;20423;-41
2023/08/30 14:20:56;;;;;;;9.70;8.90;;;;;;;;;;5049970;28;20492;-44
2023/08/30 14:23:25;;;;;;;10.97;9.80;;;;;;;;;;5035120;28;20513;-46
2023/08/30 14:25:56;;;;;;;8.10;7.30;;;;;;;;;;5043281;28;20468;-41
2023/08/30 14:28:24;;;;;;;10.00;9.10;;;;;;;;;;5040818;28;20434;-42